Time;durP1;ratioP1;P1;durP2;ratioP2;P2;SDS_P1;SDS_P2;PMS_P1;PMS_P2;Temp;Humidity;BMP_temperature;BMP_pressure;BME280_temperature;BME280_humidity;BME280_pressure;Samples;Min_cycle;Max_cycle;Signal;HPM_P1;HPM_P2
2022/04/17 00:00:38;;;;;;;4.10;3.80;;;;;;;7.89;43.75;102414.84;4951416;28;21549;-69
2022/04/17 00:03:03;;;;;;;4.22;3.92;;;;;;;7.82;44.70;102408.16;4939693;28;20209;-69
2022/04/17 00:05:28;;;;;;;4.10;3.78;;;;;;;7.83;45.63;102407.25;4954968;28;20027;-69
2022/04/17 00:07:54;;;;;;;4.93;4.30;;;;;;;7.87;45.36;102403.53;4959083;28;20015;-69
2022/04/17 00:10:19;;;;;;;4.68;3.70;;;;;;;7.80;45.84;102403.91;4956705;28;20495;-69
2022/04/17 00:12:44;;;;;;;4.80;3.75;;;;;;;7.68;47.04;102402.75;4953355;28;20010;-69
2022/04/17 00:15:10;;;;;;;4.18;3.88;;;;;;;7.70;46.56;102403.53;4938033;28;20056;-70
2022/04/17 00:17:42;;;;;;;4.72;3.70;;;;;;;7.70;47.51;102395.63;4964165;28;20029;-70
2022/04/17 00:20:10;;;;;;;4.03;3.70;;;;;;;7.56;47.80;102393.69;4950800;28;20026;-70
2022/04/17 00:22:35;;;;;;;3.80;3.60;;;;;;;7.48;47.24;102398.47;4938369;28;20081;-71
2022/04/17 00:25:01;;;;;;;4.28;3.88;;;;;;;7.42;47.96;102402.28;4951192;28;20006;-70
2022/04/17 00:27:27;;;;;;;4.25;3.88;;;;;;;7.31;48.36;102391.41;4963865;28;20010;-71
2022/04/17 00:29:52;;;;;;;4.00;3.60;;;;;;;7.38;47.98;102383.13;4956582;28;20018;-70
2022/04/17 00:32:18;;;;;;;4.28;3.88;;;;;;;7.52;47.94;102395.59;4955115;28;20268;-71
2022/04/17 00:34:44;;;;;;;3.80;3.53;;;;;;;7.39;47.43;102394.53;4971977;28;20023;-70
2022/04/17 00:37:10;;;;;;;5.68;3.78;;;;;;;7.36;47.66;102392.88;4966438;28;20014;-69
2022/04/17 00:39:35;;;;;;;4.30;4.00;;;;;;;7.40;46.03;102383.03;4946037;28;20045;-70
2022/04/17 00:42:04;;;;;;;4.18;3.85;;;;;;;7.41;47.27;102382.13;4957951;28;20019;-70
2022/04/17 00:44:30;;;;;;;4.28;3.88;;;;;;;7.39;46.06;102384.00;4934838;28;20046;-70
2022/04/17 00:46:55;;;;;;;3.95;3.70;;;;;;;7.44;44.79;102387.22;4920323;28;20030;-69
2022/04/17 00:49:21;;;;;;;4.85;3.80;;;;;;;7.41;45.84;102382.13;4953233;28;20022;-70
2022/04/17 00:51:47;;;;;;;4.00;3.70;;;;;;;7.49;46.90;102372.06;4954507;28;20018;-69
2022/04/17 00:54:13;;;;;;;4.03;3.72;;;;;;;7.48;46.80;102374.78;4936662;28;20181;-69
2022/04/17 00:56:38;;;;;;;4.15;3.75;;;;;;;7.49;46.28;102379.13;4956869;28;20921;-69
2022/04/17 00:59:09;;;;;;;4.00;3.70;;;;;;;7.50;46.17;102376.41;4931160;28;19998;-69
2022/04/17 01:01:36;;;;;;;4.18;3.40;;;;;;;7.61;46.93;102369.75;4962805;28;20014;-69
2022/04/17 01:04:01;;;;;;;4.13;3.63;;;;;;;7.60;45.59;102375.94;4964352;28;20108;-70
2022/04/17 01:06:26;;;;;;;4.55;3.70;;;;;;;7.58;46.23;102368.09;4963547;28;20018;-70
2022/04/17 01:08:52;;;;;;;4.13;3.83;;;;;;;7.52;45.41;102371.06;4973665;28;20285;-70
2022/04/17 01:11:17;;;;;;;3.72;3.40;;;;;;;7.48;46.36;102367.72;4964289;28;20304;-70
2022/04/17 01:13:43;;;;;;;4.13;3.58;;;;;;;7.53;47.38;102359.56;4952652;28;20182;-68
2022/04/17 01:16:08;;;;;;;3.58;3.38;;;;;;;7.52;47.28;102363.16;4935449;28;20021;-69
2022/04/17 01:18:56;;;;;;;4.13;3.63;;;;;;;7.38;47.63;102361.22;4937626;28;20011;-69
2022/04/17 01:21:23;;;;;;;3.65;3.38;;;;;;;7.46;47.52;102366.94;4949389;28;20549;-69
2022/04/17 01:29:17;;;;;;;4.47;3.30;;;;;;;7.36;48.20;102355.16;4952780;28;20784;-68
2022/04/17 01:31:43;;;;;;;3.50;3.20;;;;;;;7.33;48.91;102363.22;4962178;28;20133;-67
2022/04/17 01:34:08;;;;;;;3.67;3.35;;;;;;;7.14;49.33;102353.56;4971382;28;20022;-67
2022/04/17 01:36:34;;;;;;;3.40;3.20;;;;;;;7.14;49.67;102360.63;4975010;28;20015;-66
2022/04/17 01:38:59;;;;;;;3.22;3.03;;;;;;;7.10;49.99;102351.19;4971572;28;20022;-70
2022/04/17 01:41:24;;;;;;;3.30;3.10;;;;;;;6.99;50.11;102359.59;4957267;28;20379;-70
2022/04/17 01:43:50;;;;;;;3.75;3.45;;;;;;;6.97;49.92;102356.19;4957599;28;20796;-70
2022/04/17 01:46:15;;;;;;;3.42;3.22;;;;;;;6.92;49.73;102360.81;4954831;28;20010;-68
2022/04/17 01:48:41;;;;;;;3.65;3.40;;;;;;;6.76;51.03;102358.91;4941428;28;20022;-70
2022/04/17 01:51:07;;;;;;;3.50;3.25;;;;;;;6.67;51.24;102354.94;4968622;28;20127;-69
2022/04/17 01:53:32;;;;;;;3.60;3.30;;;;;;;6.59;51.75;102350.94;4957425;28;21401;-70
2022/04/17 01:55:59;;;;;;;3.65;3.40;;;;;;;6.62;51.52;102345.53;4971992;28;20103;-69
2022/04/17 01:58:24;;;;;;;3.45;3.20;;;;;;;6.80;51.06;102352.56;4938786;28;20026;-70
2022/04/17 02:00:50;;;;;;;3.55;3.35;;;;;;;6.80;51.90;102357.84;4959817;28;20018;-69
2022/04/17 02:03:15;;;;;;;3.63;3.33;;;;;;;6.53;52.15;102350.31;4960058;28;20810;-70
2022/04/17 02:05:40;;;;;;;3.30;3.10;;;;;;;6.66;51.90;102347.09;4962653;28;20243;-70
2022/04/17 02:08:06;;;;;;;3.55;3.25;;;;;;;6.70;52.37;102346.88;4968645;28;20007;-70
2022/04/17 02:10:31;;;;;;;3.80;3.50;;;;;;;6.52;52.64;102343.31;4939718;28;20164;-69
2022/04/17 02:12:57;;;;;;;3.53;3.33;;;;;;;6.26;52.79;102338.41;4962992;28;20026;-70
2022/04/17 02:15:22;;;;;;;3.70;3.40;;;;;;;6.24;53.63;102337.63;4964285;28;20026;-70
2022/04/17 02:17:48;;;;;;;3.45;3.20;;;;;;;6.37;52.90;102344.03;4968013;28;20029;-70
2022/04/17 02:20:13;;;;;;;3.28;3.08;;;;;;;6.34;53.26;102345.00;4966051;28;20542;-69
2022/04/17 02:22:39;;;;;;;3.60;3.30;;;;;;;6.24;54.10;102353.41;4963629;28;20490;-69
2022/04/17 02:25:05;;;;;;;3.70;3.40;;;;;;;6.17;53.52;102348.41;4933148;28;20021;-69
2022/04/17 02:27:30;;;;;;;3.45;3.25;;;;;;;6.05;54.31;102335.84;4967902;28;20023;-70
2022/04/17 02:29:56;;;;;;;3.55;3.25;;;;;;;6.01;54.40;102339.50;4958342;28;20042;-70
2022/04/17 02:32:21;;;;;;;4.95;3.38;;;;;;;5.96;54.21;102336.19;4964822;28;20026;-69
2022/04/17 02:34:47;;;;;;;3.95;3.20;;;;;;;5.90;54.62;102344.34;4970511;28;20519;-69
2022/04/17 02:37:12;;;;;;;3.50;3.20;;;;;;;5.76;54.46;102337.06;4955308;28;20074;-69
2022/04/17 02:39:38;;;;;;;3.33;3.13;;;;;;;5.68;55.64;102340.00;4937469;28;20026;-70
2022/04/17 02:42:03;;;;;;;3.60;3.30;;;;;;;5.60;55.76;102334.25;4963591;28;20084;-69
2022/04/17 02:44:29;;;;;;;3.08;2.85;;;;;;;5.48;56.93;102331.19;4936334;28;20133;-69
2022/04/17 02:49:38;;;;;;;3.40;3.10;;;;;;;5.33;56.77;102321.38;4953052;28;21013;-69
2022/04/17 02:52:04;;;;;;;3.28;3.08;;;;;;;5.33;56.76;102313.50;4955340;28;19999;-69
2022/04/17 02:54:30;;;;;;;4.00;3.20;;;;;;;5.24;58.28;102308.59;4956306;28;20228;-68
2022/04/17 02:56:55;;;;;;;3.33;3.00;;;;;;;5.23;58.03;102309.53;4934027;28;20022;-69
2022/04/17 02:59:20;;;;;;;3.15;2.80;;;;;;;5.12;58.98;102307.34;4935484;28;20026;-68
2022/04/17 03:07:14;;;;;;;3.55;3.25;;;;;;;4.97;58.88;102298.31;4953104;28;20018;-68
2022/04/17 03:09:39;;;;;;;2.60;2.50;;;;;;;4.98;58.68;102290.38;4956511;28;20026;-68
2022/04/17 03:12:05;;;;;;;3.00;2.83;;;;;;;5.08;58.79;102290.88;4962793;28;20020;-69
2022/04/17 03:14:30;;;;;;;3.20;2.95;;;;;;;5.15;58.02;102297.56;4974731;28;20598;-71
2022/04/17 03:16:56;;;;;;;2.90;2.70;;;;;;;5.11;57.85;102303.84;4948678;28;20389;-69
2022/04/17 03:19:21;;;;;;;3.00;2.80;;;;;;;5.15;57.53;102300.19;4941707;28;20026;-68
2022/04/17 03:21:46;;;;;;;2.92;2.72;;;;;;;5.04;57.88;102304.19;4960844;28;20003;-69
2022/04/17 03:24:12;;;;;;;3.85;3.08;;;;;;;5.13;57.54;102303.78;4965768;28;20128;-69
2022/04/17 03:26:41;;;;;;;3.00;2.80;;;;;;;4.99;58.38;102301.72;4963539;28;20972;-69
2022/04/17 03:29:06;;;;;;;3.90;3.15;;;;;;;4.90;58.99;102295.09;4967782;28;20507;-69
2022/04/17 03:31:31;;;;;;;3.63;3.22;;;;;;;4.91;59.35;102293.34;4961278;28;20025;-69
2022/04/17 03:33:57;;;;;;;3.80;3.50;;;;;;;4.97;58.75;102293.91;4974602;28;20034;-70
2022/04/17 03:36:22;;;;;;;3.00;2.85;;;;;;;5.03;58.72;102298.06;4947649;28;20813;-69
2022/04/17 03:38:47;;;;;;;3.00;2.80;;;;;;;5.05;59.04;102292.75;4970530;28;20403;-69
2022/04/17 03:41:13;;;;;;;2.92;2.70;;;;;;;5.19;57.95;102292.19;4953895;28;20033;-69
2022/04/17 03:43:39;;;;;;;3.05;2.85;;;;;;;5.13;56.79;102290.66;4981339;28;20425;-68
2022/04/17 03:46:04;;;;;;;3.35;3.05;;;;;;;5.23;57.65;102288.53;4966232;28;20883;-68
2022/04/17 03:48:30;;;;;;;3.58;2.97;;;;;;;5.15;57.32;102294.09;4962192;28;20017;-68
2022/04/17 03:50:56;;;;;;;2.67;2.58;;;;;;;5.08;57.77;102285.63;4958470;28;20022;-68
2022/04/17 03:53:21;;;;;;;3.88;2.90;;;;;;;5.12;57.25;102281.13;4974811;28;20723;-70
2022/04/17 03:55:47;;;;;;;2.90;2.70;;;;;;;5.18;56.37;102280.84;4970739;28;20027;-69
2022/04/17 03:58:12;;;;;;;3.47;3.05;;;;;;;5.30;56.07;102279.47;4968571;28;20030;-68
2022/04/17 04:00:37;;;;;;;3.35;3.05;;;;;;;5.32;57.10;102280.28;4979200;28;20022;-69
2022/04/17 04:03:03;;;;;;;2.90;2.70;;;;;;;5.43;56.47;102285.94;4977096;28;20027;-68
2022/04/17 04:05:28;;;;;;;3.17;2.90;;;;;;;5.43;56.63;102285.06;4967220;28;20890;-68
2022/04/17 04:07:54;;;;;;;3.08;2.70;;;;;;;5.45;55.96;102283.22;4951310;28;20298;-68
2022/04/17 04:10:19;;;;;;;2.95;2.75;;;;;;;5.54;55.69;102279.34;4970150;28;20015;-68
2022/04/17 04:12:44;;;;;;;3.63;2.90;;;;;;;5.47;56.54;102277.00;4969370;28;20234;-70
2022/04/17 04:15:10;;;;;;;3.15;2.80;;;;;;;5.53;56.58;102277.63;4967608;28;20018;-70
2022/04/17 04:17:35;;;;;;;2.90;2.70;;;;;;;5.65;56.32;102285.00;4943181;28;20078;-69
2022/04/17 04:20:01;;;;;;;3.33;3.03;;;;;;;5.48;56.89;102280.47;4985624;28;20022;-71
2022/04/17 04:22:27;;;;;;;4.13;2.60;;;;;;;5.52;55.22;102284.66;4994870;28;20229;-70
2022/04/17 04:24:52;;;;;;;2.90;2.70;;;;;;;5.49;55.81;102285.66;4990226;28;20250;-70
2022/04/17 04:30:02;;;;;;;3.10;2.90;;;;;;;5.48;56.16;102281.31;4974617;28;20254;-69
2022/04/17 04:32:28;;;;;;;3.20;2.90;;;;;;;5.39;57.05;102284.34;4973152;28;20007;-69
2022/04/17 04:34:58;;;;;;;3.08;2.90;;;;;;;5.33;56.84;102277.59;4942122;28;20034;-69
2022/04/17 04:37:23;;;;;;;2.90;2.70;;;;;;;5.29;57.71;102288.28;4947404;28;20733;-69
2022/04/17 04:39:49;;;;;;;2.70;2.60;;;;;;;5.24;57.22;102288.47;4969963;28;20022;-69
2022/04/17 04:42:14;;;;;;;3.10;2.90;;;;;;;5.25;57.14;102286.72;4968389;28;20156;-68
2022/04/17 04:44:39;;;;;;;2.95;2.70;;;;;;;5.24;57.55;102280.59;4975322;28;20019;-70
2022/04/17 04:47:05;;;;;;;2.60;2.40;;;;;;;5.15;58.86;102268.69;4974303;28;20026;-69
2022/04/17 04:49:30;;;;;;;2.70;2.60;;;;;;;5.08;58.93;102264.63;4946104;28;20936;-69
2022/04/17 04:51:58;;;;;;;2.75;2.50;;;;;;;5.16;59.37;102265.16;4953315;28;20019;-69
2022/04/17 04:54:24;;;;;;;2.67;2.58;;;;;;;5.16;59.01;102280.91;4945797;28;20991;-69
2022/04/17 04:56:50;;;;;;;2.90;2.70;;;;;;;5.15;57.98;102280.97;4965862;28;20023;-69
2022/04/17 04:59:15;;;;;;;2.97;2.78;;;;;;;5.19;57.31;102281.69;4953023;28;20033;-69
2022/04/17 05:01:40;;;;;;;3.00;2.63;;;;;;;5.28;57.73;102270.81;4951531;28;20022;-70
2022/04/17 05:04:06;;;;;;;2.95;2.78;;;;;;;5.29;57.94;102268.13;4972154;28;20046;-70
2022/04/17 05:06:32;;;;;;;3.15;2.85;;;;;;;5.28;56.36;102266.41;4965469;28;20502;-71
2022/04/17 05:08:57;;;;;;;2.88;2.67;;;;;;;5.43;56.13;102262.28;4947770;28;20479;-72
2022/04/17 05:11:23;;;;;;;3.10;2.90;;;;;;;5.46;56.00;102262.16;4963014;28;20494;-70
2022/04/17 05:13:49;;;;;;;2.72;2.53;;;;;;;5.60;55.81;102261.56;4937524;28;20006;-69
2022/04/17 05:16:14;;;;;;;2.72;2.63;;;;;;;5.68;55.58;102275.22;4937154;28;20029;-70
2022/04/17 05:18:39;;;;;;;2.78;2.67;;;;;;;5.75;55.94;102264.44;4939634;28;20425;-69
2022/04/17 05:21:06;;;;;;;2.53;2.42;;;;;;;5.73;55.31;102271.53;4967573;28;20018;-69
2022/04/17 05:23:32;;;;;;;2.80;2.60;;;;;;;5.77;55.19;102270.50;4951814;28;20420;-69
2022/04/17 05:26:01;;;;;;;4.28;2.53;;;;;;;5.78;55.27;102267.78;4955350;28;20018;-70
2022/04/17 05:28:30;;;;;;;2.47;2.30;;;;;;;5.91;54.71;102269.84;4964380;28;20033;-70
2022/04/17 05:30:55;;;;;;;2.80;2.60;;;;;;;5.98;54.63;102268.72;4967157;28;20041;-69
2022/04/17 05:33:21;;;;;;;3.00;2.72;;;;;;;6.04;54.90;102271.06;4956590;28;20327;-70
2022/04/17 05:35:47;;;;;;;2.33;2.13;;;;;;;6.32;55.56;102277.69;4971982;28;20506;-70
2022/04/17 05:38:13;;;;;;;3.88;2.30;;;;;;;6.41;55.40;102277.22;4973484;28;20024;-70
2022/04/17 05:40:40;;;;;;;2.40;2.20;;;;;;;6.42;54.59;102276.31;4954866;28;20019;-70
2022/04/17 05:43:06;;;;;;;2.50;2.30;;;;;;;6.66;53.53;102283.97;4944031;28;20949;-70
2022/04/17 05:45:32;;;;;;;2.95;2.38;;;;;;;6.62;54.37;102280.63;4954433;28;20015;-70
2022/04/17 05:47:58;;;;;;;4.18;2.60;;;;;;;6.73;52.40;102279.25;4931853;28;20015;-70
2022/04/17 05:50:23;;;;;;;2.63;2.53;;;;;;;6.76;52.75;102277.34;4951693;28;20011;-70
2022/04/17 05:52:48;;;;;;;2.65;2.25;;;;;;;6.79;52.89;102271.91;4952773;28;20023;-70
2022/04/17 05:55:14;;;;;;;2.50;2.30;;;;;;;6.84;52.16;102266.47;4942938;28;20791;-71
2022/04/17 05:57:40;;;;;;;4.25;2.28;;;;;;;6.90;52.75;102265.31;4968679;28;20450;-71
2022/04/17 06:00:08;;;;;;;2.38;2.20;;;;;;;7.05;52.59;102272.44;4955649;28;20033;-70
2022/04/17 06:02:34;;;;;;;2.15;2.05;;;;;;;7.12;51.82;102271.22;4949625;28;20842;-71
2022/04/17 06:04:59;;;;;;;2.30;2.20;;;;;;;7.31;50.92;102265.00;4935264;28;20370;-71
2022/04/17 06:07:26;;;;;;;2.13;2.03;;;;;;;7.44;50.33;102270.50;4958241;28;20163;-72
2022/04/17 06:09:51;;;;;;;2.33;2.13;;;;;;;7.45;50.24;102259.88;4939455;28;20110;-70
2022/04/17 06:12:17;;;;;;;2.80;2.00;;;;;;;7.54;51.07;102272.59;4955234;28;20017;-71
2022/04/17 06:14:43;;;;;;;2.10;2.00;;;;;;;7.64;50.06;102265.06;4957155;28;20003;-70
2022/04/17 06:17:10;;;;;;;2.60;2.40;;;;;;;7.81;50.02;102263.31;4955817;28;20552;-70
2022/04/17 06:19:35;;;;;;;2.17;2.00;;;;;;;7.88;50.64;102265.56;4957000;28;20003;-70
2022/04/17 06:22:01;;;;;;;1.98;1.88;;;;;;;7.87;49.95;102269.09;4973898;28;20026;-71
2022/04/17 06:24:26;;;;;;;2.78;2.00;;;;;;;7.98;50.00;102265.03;4970532;28;20207;-71
2022/04/17 06:26:51;;;;;;;2.30;2.10;;;;;;;8.09;48.64;102257.41;4966804;28;20018;-70
2022/04/17 06:29:17;;;;;;;1.98;1.85;;;;;;;8.12;49.10;102259.03;4945519;28;20011;-70
2022/04/17 06:31:45;;;;;;;2.10;1.90;;;;;;;8.20;48.05;102255.03;4946483;28;20846;-70
2022/04/17 06:34:12;;;;;;;1.80;1.70;;;;;;;8.29;47.10;102258.97;4962980;28;20099;-71
2022/04/17 06:36:38;;;;;;;3.08;2.08;;;;;;;8.45;47.06;102253.72;4961774;28;20014;-71
2022/04/17 06:39:03;;;;;;;3.38;2.00;;;;;;;8.41;47.86;102252.16;4968634;28;20002;-71
2022/04/17 06:41:29;;;;;;;1.77;1.67;;;;;;;8.42;46.75;102251.22;4995649;28;20033;-72
2022/04/17 06:43:54;;;;;;;1.95;1.80;;;;;;;8.51;46.50;102244.63;4984012;28;20042;-71
2022/04/17 06:46:20;;;;;;;2.50;2.03;;;;;;;8.57;46.90;102246.91;4987292;28;20025;-72
2022/04/17 06:48:45;;;;;;;1.90;1.80;;;;;;;8.71;47.22;102251.41;4998608;28;20615;-71
2022/04/17 06:51:10;;;;;;;2.70;2.00;;;;;;;8.82;46.24;102243.72;4980786;28;20007;-71
2022/04/17 06:53:36;;;;;;;2.15;1.95;;;;;;;8.89;45.72;102252.97;4980641;28;20014;-70
2022/04/17 06:56:01;;;;;;;2.63;1.80;;;;;;;8.96;45.50;102252.63;4992894;28;20010;-71
2022/04/17 06:58:27;;;;;;;1.88;1.77;;;;;;;9.03;45.57;102253.97;5002693;28;20015;-70
2022/04/17 07:00:52;;;;;;;2.08;1.95;;;;;;;9.10;44.74;102247.41;4989746;28;20022;-71
2022/04/17 07:03:17;;;;;;;2.95;2.15;;;;;;;9.23;44.09;102244.88;4993027;28;20622;-71
2022/04/17 07:05:43;;;;;;;3.13;2.03;;;;;;;9.19;45.30;102235.44;4980995;28;20038;-71
2022/04/17 07:08:09;;;;;;;2.88;2.28;;;;;;;9.23;44.43;102229.88;4991223;28;20033;-71
2022/04/17 07:10:38;;;;;;;2.38;2.10;;;;;;;9.26;43.39;102236.75;5002805;28;20048;-71
2022/04/17 07:13:05;;;;;;;2.10;2.00;;;;;;;9.27;43.12;102233.19;5000807;28;20110;-71
2022/04/17 07:15:30;;;;;;;1.92;1.70;;;;;;;9.49;44.99;102240.69;4979006;28;20015;-71
2022/04/17 07:17:55;;;;;;;2.10;2.00;;;;;;;9.59;44.16;102233.88;4985917;28;20500;-73
2022/04/17 07:20:21;;;;;;;2.88;1.85;;;;;;;9.51;42.77;102233.50;4988051;28;20022;-71
2022/04/17 07:22:47;;;;;;;2.20;2.00;;;;;;;9.62;43.14;102225.78;4963320;28;20910;-70
2022/04/17 07:25:13;;;;;;;1.88;1.65;;;;;;;9.74;43.09;102223.31;4995402;28;20068;-70
2022/04/17 07:27:48;;;;;;;1.85;1.70;;;;;;;9.98;42.50;102218.28;4981643;28;20019;-70
2022/04/17 07:30:15;;;;;;;1.77;1.65;;;;;;;9.96;41.69;102218.38;4987615;28;20022;-70
2022/04/17 07:32:41;;;;;;;1.95;1.85;;;;;;;10.04;42.71;102222.34;4984953;28;20169;-68
2022/04/17 07:35:07;;;;;;;2.00;1.80;;;;;;;10.30;40.93;102216.25;4999392;28;20360;-70
2022/04/17 07:37:35;;;;;;;2.30;1.90;;;;;;;10.28;40.90;102212.84;5009071;28;20076;-72
2022/04/17 07:40:15;;;;;;;1.67;1.52;;;;;;;10.21;41.04;102208.03;4982202;28;20045;-71
2022/04/17 07:42:41;;;;;;;1.90;1.70;;;;;;;10.32;41.09;102213.50;4971653;28;20488;-72
2022/04/17 07:45:07;;;;;;;1.63;1.52;;;;;;;10.40;41.31;102218.34;4950262;28;20145;-71
2022/04/17 07:47:32;;;;;;;1.88;1.77;;;;;;;10.50;40.59;102213.28;4963203;28;20027;-71
2022/04/17 07:49:59;;;;;;;2.03;1.88;;;;;;;10.44;41.50;102219.84;4960194;28;20969;-71
2022/04/17 07:52:24;;;;;;;2.70;1.80;;;;;;;10.53;41.11;102215.75;4964183;28;20730;-70
2022/04/17 07:54:50;;;;;;;1.98;1.70;;;;;;;10.58;42.10;102218.94;4943589;28;20440;-70
2022/04/17 07:57:15;;;;;;;2.90;1.45;;;;;;;10.73;42.15;102217.06;4944567;28;20367;-70
2022/04/17 07:59:41;;;;;;;2.20;2.00;;;;;;;10.85;40.52;102210.97;4964832;28;20027;-71
2022/04/17 08:02:22;;;;;;;2.90;1.73;;;;;;;10.91;40.45;102215.00;4964183;28;20100;-70
2022/04/17 08:04:51;;;;;;;1.83;1.67;;;;;;;10.97;40.26;102204.84;4958779;28;20156;-72
2022/04/17 08:07:17;;;;;;;1.95;1.85;;;;;;;10.93;39.91;102213.97;4939865;28;20006;-71
2022/04/17 08:09:43;;;;;;;1.90;1.70;;;;;;;11.00;39.55;102209.94;4960311;28;20028;-70
2022/04/17 08:12:08;;;;;;;1.48;1.38;;;;;;;11.12;39.52;102204.75;4943927;28;20033;-70
2022/04/17 08:14:33;;;;;;;1.70;1.60;;;;;;;11.11;39.27;102211.00;4972922;28;20022;-69
2022/04/17 08:16:59;;;;;;;1.92;1.70;;;;;;;11.09;39.45;102197.03;4964704;28;20463;-70
2022/04/17 08:19:24;;;;;;;1.48;1.48;;;;;;;11.30;41.77;102195.53;4960259;28;20104;-70
2022/04/17 08:21:51;;;;;;;1.83;1.70;;;;;;;11.48;39.62;102198.72;4961246;28;20313;-70
2022/04/17 08:24:16;;;;;;;2.03;1.70;;;;;;;11.60;39.63;102194.38;4947134;28;20045;-71
2022/04/17 08:26:42;;;;;;;3.28;1.73;;;;;;;11.74;39.23;102187.25;4951762;28;20033;-70
2022/04/17 08:29:09;;;;;;;1.90;1.80;;;;;;;11.83;37.97;102186.59;4961670;28;20077;-70
2022/04/17 08:31:34;;;;;;;1.75;1.65;;;;;;;12.02;39.33;102183.50;4962485;28;20014;-70
2022/04/17 08:34:00;;;;;;;1.95;1.83;;;;;;;11.98;39.35;102189.97;4948925;28;20224;-71
2022/04/17 08:36:26;;;;;;;1.90;1.55;;;;;;;11.97;37.22;102183.84;4943665;28;20030;-71
2022/04/17 08:38:51;;;;;;;2.42;1.77;;;;;;;12.10;38.97;102188.25;4966238;28;20715;-72
2022/04/17 08:41:17;;;;;;;1.90;1.80;;;;;;;12.25;37.96;102187.13;4970056;28;20123;-71
2022/04/17 08:43:42;;;;;;;1.50;1.40;;;;;;;12.46;37.69;102189.19;4971244;28;20030;-70
2022/04/17 08:46:10;;;;;;;2.38;1.73;;;;;;;12.33;37.16;102174.13;4947587;28;20382;-70
2022/04/17 08:48:35;;;;;;;1.77;1.65;;;;;;;12.43;37.44;102173.47;4958170;28;20042;-70
2022/04/17 08:51:02;;;;;;;2.15;1.88;;;;;;;12.60;36.13;102174.88;4949567;28;20158;-71
2022/04/17 08:53:27;;;;;;;2.90;1.50;;;;;;;12.73;37.41;102169.47;4937205;28;20271;-71
2022/04/17 08:55:52;;;;;;;1.70;1.60;;;;;;;13.05;38.08;102169.69;4937073;28;20015;-71
2022/04/17 08:58:18;;;;;;;2.00;1.77;;;;;;;13.29;38.24;102169.59;4938480;28;20045;-72
2022/04/17 09:00:43;;;;;;;2.17;1.50;;;;;;;13.67;38.25;102168.41;4948101;28;20762;-71
2022/04/17 09:03:09;;;;;;;1.50;1.40;;;;;;;13.82;35.93;102160.19;4960377;28;20061;-71
2022/04/17 09:05:35;;;;;;;1.70;1.60;;;;;;;13.93;35.38;102160.16;4957437;28;20088;-72
2022/04/17 09:08:17;;;;;;;1.65;1.55;;;;;;;14.11;35.74;102170.31;4954879;28;20160;-70
2022/04/17 09:10:55;;;;;;;1.83;1.52;;;;;;;14.44;37.20;102156.03;4955223;28;20025;-71
2022/04/17 09:13:53;;;;;;;2.00;1.42;;;;;;;14.49;33.18;102158.31;4967730;28;21171;-71
2022/04/17 09:16:23;;;;;;;1.50;1.40;;;;;;;14.41;32.63;102156.25;4962491;28;20010;-71
2022/04/17 09:18:48;;;;;;;1.92;1.40;;;;;;;14.84;33.74;102144.72;4946196;28;20072;-70
2022/04/17 09:21:14;;;;;;;1.40;1.30;;;;;;;15.05;34.10;102144.69;4959200;28;20010;-71
2022/04/17 09:23:40;;;;;;;1.40;1.40;;;;;;;15.13;32.87;102148.53;4948857;28;20027;-71
2022/04/17 09:26:06;;;;;;;3.70;1.48;;;;;;;15.12;32.91;102147.69;4946379;28;20054;-71
2022/04/17 09:28:35;;;;;;;1.33;1.25;;;;;;;15.59;31.77;102145.34;4958617;28;20026;-72
2022/04/17 09:31:03;;;;;;;1.42;1.33;;;;;;;16.04;32.27;102133.41;4968775;28;20015;-71
2022/04/17 09:33:36;;;;;;;1.52;1.40;;;;;;;16.29;31.23;102131.19;4963936;28;20192;-71
2022/04/17 09:36:02;;;;;;;2.47;1.20;;;;;;;16.01;31.77;102128.34;4963169;28;20002;-71
2022/04/17 09:38:30;;;;;;;1.27;1.27;;;;;;;16.38;33.30;102119.66;4956168;28;20019;-73
2022/04/17 09:41:10;;;;;;;1.20;1.13;;;;;;;17.09;32.33;102115.75;4956499;28;20561;-71
2022/04/17 09:43:35;;;;;;;1.58;1.20;;;;;;;17.41;31.06;102117.16;4962524;28;20057;-71
2022/04/17 09:46:05;;;;;;;2.28;1.52;;;;;;;17.37;29.72;102112.25;4965832;28;20007;-71
2022/04/17 09:48:35;;;;;;;1.33;1.30;;;;;;;17.63;30.46;102109.75;4940912;28;20006;-72
2022/04/17 09:51:01;;;;;;;1.50;1.40;;;;;;;18.15;31.87;102096.56;4954559;28;20351;-72
2022/04/17 09:53:30;;;;;;;1.75;1.30;;;;;;;18.03;29.48;102111.19;4966013;28;20018;-71
2022/04/17 09:56:11;;;;;;;1.60;1.30;;;;;;;18.00;28.26;102093.56;4964243;28;20010;-71
2022/04/17 09:58:38;;;;;;;1.30;1.20;;;;;;;18.09;28.99;102099.88;4957807;28;20034;-72
2022/04/17 10:01:06;;;;;;;1.92;1.50;;;;;;;18.23;29.44;102094.97;4970589;28;20982;-72
2022/04/17 10:03:32;;;;;;;2.08;1.30;;;;;;;18.69;29.69;102083.06;4981559;28;20129;-72
2022/04/17 10:05:58;;;;;;;1.50;1.40;;;;;;;18.83;29.14;102078.97;4979318;28;20087;-71
2022/04/17 10:08:26;;;;;;;1.33;1.20;;;;;;;18.85;28.99;102068.09;4980449;28;20022;-71
2022/04/17 10:10:51;;;;;;;1.23;1.15;;;;;;;19.37;29.48;102075.22;4946516;28;20113;-72
2022/04/17 10:13:17;;;;;;;2.67;1.40;;;;;;;19.66;26.64;102064.06;4965862;28;20014;-71
2022/04/17 10:15:42;;;;;;;1.40;1.30;;;;;;;19.99;28.09;102055.25;4963282;28;20084;-70
2022/04/17 10:18:08;;;;;;;1.20;1.20;;;;;;;19.70;27.48;102056.53;4962756;28;20257;-71
2022/04/17 10:20:33;;;;;;;1.45;1.40;;;;;;;20.31;26.91;102053.59;4930665;28;20015;-72
2022/04/17 10:23:02;;;;;;;1.15;1.15;;;;;;;20.71;24.70;102044.63;4963248;28;20069;-72
2022/04/17 10:25:27;;;;;;;2.63;1.17;;;;;;;20.82;25.44;102039.91;4964154;28;20909;-71
2022/04/17 10:27:57;;;;;;;3.75;1.10;;;;;;;21.06;25.56;102050.56;4984221;28;20006;-72
2022/04/17 10:30:43;;;;;;;1.35;1.20;;;;;;;21.25;24.84;102038.53;4982402;28;20528;-72
2022/04/17 10:33:35;;;;;;;1.40;1.30;;;;;;;21.67;24.88;102043.72;4949004;28;20504;-72
2022/04/17 10:36:22;;;;;;;1.40;1.30;;;;;;;21.57;23.15;102042.06;4965560;28;20023;-70
2022/04/17 10:39:09;;;;;;;1.35;1.30;;;;;;;21.64;24.79;102033.31;4949756;28;20018;-71
2022/04/17 10:41:34;;;;;;;1.13;1.00;;;;;;;21.51;22.67;102025.78;4972764;28;20937;-71
2022/04/17 10:44:02;;;;;;;3.10;1.30;;;;;;;22.07;21.86;102020.19;4969171;28;20026;-71
2022/04/17 10:46:28;;;;;;;1.30;1.20;;;;;;;22.35;22.17;102024.97;4987131;28;20010;-72
2022/04/17 10:48:55;;;;;;;1.20;1.10;;;;;;;22.79;22.68;102013.41;4969891;28;20019;-72
2022/04/17 10:51:22;;;;;;;1.40;1.30;;;;;;;22.34;23.33;102012.53;4936837;28;20118;-72
2022/04/17 10:53:52;;;;;;;1.13;1.13;;;;;;;22.18;23.14;102014.34;4936780;28;20060;-71
2022/04/17 10:56:18;;;;;;;2.10;1.60;;;;;;;22.45;23.89;102004.00;4961481;28;20018;-71
2022/04/17 10:58:54;;;;;;;1.40;1.30;;;;;;;22.53;22.69;102001.19;4937455;28;20007;-73
2022/04/17 11:01:41;;;;;;;1.20;1.20;;;;;;;23.14;22.29;101975.84;4942806;28;20042;-72
2022/04/17 11:04:21;;;;;;;0.95;0.95;;;;;;;23.64;20.82;101976.75;4968366;28;20033;-72
2022/04/17 11:06:52;;;;;;;1.25;1.15;;;;;;;23.62;22.13;101986.94;4967469;28;20738;-72
2022/04/17 11:09:21;;;;;;;1.10;1.10;;;;;;;23.30;20.53;101980.19;4953685;28;20060;-72
2022/04/17 11:11:47;;;;;;;1.00;1.00;;;;;;;23.79;20.60;101978.59;4969594;28;20038;-72
2022/04/17 11:14:20;;;;;;;1.35;1.00;;;;;;;23.79;20.63;101978.59;4975632;28;20131;-72
2022/04/17 11:16:48;;;;;;;1.20;1.13;;;;;;;23.50;22.10;101969.56;4966233;28;20087;-71
2022/04/17 11:19:14;;;;;;;1.17;1.13;;;;;;;23.80;21.47;101964.00;4964694;28;20129;-71
2022/04/17 11:21:44;;;;;;;1.20;1.10;;;;;;;23.79;22.81;101952.38;4949484;28;20134;-72
2022/04/17 11:24:10;;;;;;;0.90;0.90;;;;;;;24.21;21.79;101960.59;4935503;28;21000;-72
2022/04/17 11:26:50;;;;;;;1.17;1.10;;;;;;;24.45;20.52;101955.75;4959571;28;20010;-72
2022/04/17 11:29:16;;;;;;;1.38;0.80;;;;;;;23.95;21.22;101961.25;4966563;28;20015;-73
2022/04/17 11:31:41;;;;;;;0.93;0.80;;;;;;;23.37;20.45;101954.06;4959805;28;20013;-72
2022/04/17 11:34:06;;;;;;;1.10;1.10;;;;;;;23.55;19.30;101945.53;4953281;28;20846;-72
2022/04/17 11:36:32;;;;;;;1.58;0.95;;;;;;;24.61;19.04;101939.22;4948580;28;20547;-72
2022/04/17 11:38:58;;;;;;;0.93;0.82;;;;;;;25.31;21.61;101932.75;4949650;28;20019;-72
2022/04/17 11:41:23;;;;;;;1.00;1.00;;;;;;;24.98;21.17;101928.94;4932819;28;20416;-72
2022/04/17 11:43:59;;;;;;;1.02;1.02;;;;;;;24.78;19.23;101922.66;4956070;28;20034;-72